Dchai 265 — 9VDB4 — position and weather

sailwx.info

Track history (hours):
 
Tides and Currents Weather Stations Pressure Air Temp Water Temp Dewpoint Dewpoint Depression Visibility Wind Speed Wind Dir Waves Ship Positions

Dchai 265

Last reported at 2018-Jun-24 17:49 UTC. Time now 2018-Jun-24 18:51 UTC.
Position N 16°16' E 108°19'.

Length 198 m; draft 7 m.

Type: Cargo ship. MMSI: 564330498.

Date/timePositionNaut miles runAvg speedWind from/ knotsBaromVisibWave heightAir tempDewpointWater temp
2018-Jun-24 17:49N 16°16' E 108°19'717.1
2018-Jun-24 17:23N 16°11' E 108°14'410.3
2018-Jun-24 17:00N 16°07' E 108°13'0 0.5
2018-Jun-24 16:29N 16°07' E 108°13'0 0.0
2018-Jun-24 15:55N 16°07' E 108°13'0 0.0
2018-Jun-24 15:25N 16°07' E 108°13'0 0.0
2018-Jun-24 14:49N 16°07' E 108°13'0 0.0
2018-Jun-24 14:25N 16°07' E 108°13'0 0.0
2018-Jun-24 13:55N 16°07' E 108°13'0 0.0
2018-Jun-24 13:25N 16°07' E 108°13'0 0.0
2018-Jun-24 12:55N 16°07' E 108°13'0 0.0
2018-Jun-24 12:30N 16°07' E 108°13'2 3.5
2018-Jun-24 12:00N 16°09' E 108°12'2 2.8
2018-Jun-24 11:25N 16°10' E 108°12'0 0.0
2018-Jun-24 10:25N 16°10' E 108°12'0 0.0
2018-Jun-24 09:25N 16°10' E 108°12'0 0.2
2018-Jun-24 08:43N 16°10' E 108°12'0 0.1
2018-Jun-24 08:25N 16°10' E 108°12'0 0.2
2018-Jun-24 07:49N 16°10' E 108°12'0 0.2
2018-Jun-24 07:25N 16°10' E 108°12'0 0.0
2018-Jun-24 06:55N 16°10' E 108°12'0 0.1
2018-Jun-24 06:19N 16°10' E 108°12'  
2018-Jun-18 22:45N 22°20' E 114°08'0 0.0
2018-Jun-18 19:01N 22°20' E 114°08'0 0.0
2018-Jun-18 18:43N 22°20' E 114°08'0 0.0
2018-Jun-18 17:01N 22°20' E 114°08'  
2018-Jun-16 10:01N 31°05' E 122°38'016.8
2018-Jun-16 10:00N 31°05' E 122°38'1014.5
2018-Jun-16 09:19N 31°06' E 122°26'413.2
2018-Jun-16 09:00N 31°06' E 122°21'713.5
2018-Jun-16 08:28N 31°09' E 122°13'814.8
2018-Jun-16 07:55N 31°14' E 122°06'614.6
2018-Jun-16 07:30N 31°15' E 121°59'713.4
2018-Jun-16 07:00N 31°16' E 121°51'27 1.5
2018-Jun-15 13:09N 31°06' E 122°20'312.6
2018-Jun-15 12:57N 31°06' E 122°23'21 2.2
2018-Jun-15 03:22N 31°03' E 122°47'0 0.0
2018-Jun-15 02:58N 31°03' E 122°47'0 0.0
2018-Jun-15 02:25N 31°03' E 122°47'0 0.0
2018-Jun-15 01:52N 31°03' E 122°47'0 0.0
2018-Jun-15 01:25N 31°03' E 122°47'0 0.1
2018-Jun-15 00:58N 31°03' E 122°47'0 0.1
2018-Jun-15 00:25N 31°03' E 122°47'0 0.1
2018-Jun-14 21:52N 31°03' E 122°48'0 0.1
2018-Jun-14 21:19N 31°03' E 122°48'0 0.0
2018-Jun-14 20:49N 31°03' E 122°48'0 0.0
2018-Jun-14 20:19N 31°03' E 122°48'0 0.0
2018-Jun-14 19:55N 31°03' E 122°48'0 0.0
2018-Jun-14 18:37N 31°03' E 122°48'0 0.1
2018-Jun-14 18:28N 31°03' E 122°48'0 0.0
2018-Jun-14 17:52N 31°03' E 122°48'  
Track history (hours):
 
Tides and Currents Weather Stations Pressure Air Temp Water Temp Dewpoint Dewpoint Depression Visibility Wind Speed Wind Dir Waves Ship Positions

Dchai 265

Last reported at 2018-Jun-24 17:49 UTC. Time now 2018-Jun-24 18:51 UTC.
Position N 16°16' E 108°19'.

Length 198 m; draft 7 m.

Type: Cargo ship. MMSI: 564330498.

Date/timePositionNaut miles runAvg speedWind from/ knotsBaromVisibWave heightAir tempDewpointWater temp
2018-Jun-24 17:49N 16°16' E 108°19'717.1
2018-Jun-24 17:23N 16°11' E 108°14'410.3
2018-Jun-24 17:00N 16°07' E 108°13'0 0.5
2018-Jun-24 16:29N 16°07' E 108°13'0 0.0
2018-Jun-24 15:55N 16°07' E 108°13'0 0.0
2018-Jun-24 15:25N 16°07' E 108°13'0 0.0
2018-Jun-24 14:49N 16°07' E 108°13'0 0.0
2018-Jun-24 14:25N 16°07' E 108°13'0 0.0
2018-Jun-24 13:55N 16°07' E 108°13'0 0.0
2018-Jun-24 13:25N 16°07' E 108°13'0 0.0
2018-Jun-24 12:55N 16°07' E 108°13'0 0.0
2018-Jun-24 12:30N 16°07' E 108°13'2 3.5
2018-Jun-24 12:00N 16°09' E 108°12'2 2.8
2018-Jun-24 11:25N 16°10' E 108°12'0 0.0
2018-Jun-24 10:25N 16°10' E 108°12'0 0.0
2018-Jun-24 09:25N 16°10' E 108°12'0 0.2
2018-Jun-24 08:43N 16°10' E 108°12'0 0.1
2018-Jun-24 08:25N 16°10' E 108°12'0 0.2
2018-Jun-24 07:49N 16°10' E 108°12'0 0.2
2018-Jun-24 07:25N 16°10' E 108°12'0 0.0
2018-Jun-24 06:55N 16°10' E 108°12'0 0.1
2018-Jun-24 06:19N 16°10' E 108°12'  
2018-Jun-18 22:45N 22°20' E 114°08'0 0.0
2018-Jun-18 19:01N 22°20' E 114°08'0 0.0
2018-Jun-18 18:43N 22°20' E 114°08'0 0.0
2018-Jun-18 17:01N 22°20' E 114°08'  
2018-Jun-16 10:01N 31°05' E 122°38'016.8
2018-Jun-16 10:00N 31°05' E 122°38'1014.5
2018-Jun-16 09:19N 31°06' E 122°26'413.2
2018-Jun-16 09:00N 31°06' E 122°21'713.5
2018-Jun-16 08:28N 31°09' E 122°13'814.8
2018-Jun-16 07:55N 31°14' E 122°06'614.6
2018-Jun-16 07:30N 31°15' E 121°59'713.4
2018-Jun-16 07:00N 31°16' E 121°51'27 1.5
2018-Jun-15 13:09N 31°06' E 122°20'312.6
2018-Jun-15 12:57N 31°06' E 122°23'21 2.2
2018-Jun-15 03:22N 31°03' E 122°47'0 0.0
2018-Jun-15 02:58N 31°03' E 122°47'0 0.0
2018-Jun-15 02:25N 31°03' E 122°47'0 0.0
2018-Jun-15 01:52N 31°03' E 122°47'0 0.0
2018-Jun-15 01:25N 31°03' E 122°47'0 0.1
2018-Jun-15 00:58N 31°03' E 122°47'0 0.1
2018-Jun-15 00:25N 31°03' E 122°47'0 0.1
2018-Jun-14 21:52N 31°03' E 122°48'0 0.1
2018-Jun-14 21:19N 31°03' E 122°48'0 0.0
2018-Jun-14 20:49N 31°03' E 122°48'0 0.0
2018-Jun-14 20:19N 31°03' E 122°48'0 0.0
2018-Jun-14 19:55N 31°03' E 122°48'0 0.0
2018-Jun-14 18:37N 31°03' E 122°48'0 0.1
2018-Jun-14 18:28N 31°03' E 122°48'0 0.0
2018-Jun-14 17:52N 31°03' E 122°48'  

Dump ship's entire track history